Main page
METAR-TAF:

METAR-TAF

Airports :

Edmonton International Airport

Edmonton, Alberta, Canada

latitude: 53-18N, longitude: 113-35W, elevation: 715 m

Current weather observation

The report was made 49 minutes ago, at 21:00 UTC
Wind 9 kt from the South/Southwest, varying between South and Southwest
Temperature 23°C
Humidity 36%
Pressure 1017 hPa
Visibility: 24.1 km
Scattered clouds at a height of 7000 ft

METAR: CYEG 172100Z 21009KT 170V230 15SM SCT070 23/07 A3004 RMK CU3 SLP182 DENSITY ALT 3800FT

Time: 15:49 (21:49 UTC)

Forecast

The report was made 1 hour and 8 minutes ago, at 20:41 UTC
Forecast valid from 17 at 21 UTC to 18 at 18 UTC
Wind 10 kt from the Southwest
Visibility: 10 km
Few clouds at a height of 7000 ft
From 18 at 0300 UTC
Wind 6 kt from the Southeast
Visibility: 10 km
Clear sky
From 18 at 1500 UTC
Wind 8 kt from the South
Visibility: 10 km
Few clouds at a height of 24000 ft

TAF: CYEG 172041Z 1721/1818 22010KT P6SM FEW070 FM180300 14006KT P6SM SKC FM181500 19008KT P6SM FEW240 RMK NXT FCST BY 180000Z

Weather observations and forecasts of more than 4000 airports (METAR and TAF reports).

The available stations are represented by yellow and red dots on the map.

Hover mouse over dot to see the name of the station.

Then click to see weather observations and forecasts.

To change the map : click on the green buttons with a black cross to zoom in, on the green button with a dash to zoom out, or on the green arrows for adjacent maps.


METAR-TAF: